Time;durP1;ratioP1;P1;durP2;ratioP2;P2;SDS_P1;SDS_P2;PMS_P1;PMS_P2;Temp;Humidity;BMP_temperature;BMP_pressure;BME280_temperature;BME280_humidity;BME280_pressure;Samples;Min_cycle;Max_cycle;Signal;HPM_P1;HPM_P2
2022/06/19 00:01:14;;;;;;;11.35;5.75;;;24.60;99.90;;;;;;4996056;28;20232;-75
2022/06/19 00:03:52;;;;;;;9.70;5.15;;;24.50;99.90;;;;;;5014737;28;20453;-75
2022/06/19 00:06:18;;;;;;;11.00;5.90;;;24.50;99.90;;;;;;5013326;28;20693;-76
2022/06/19 00:08:45;;;;;;;10.10;5.32;;;24.40;99.90;;;;;;5012333;28;20212;-75
2022/06/19 00:11:12;;;;;;;10.25;5.70;;;24.30;99.90;;;;;;4994836;28;20215;-75
2022/06/19 00:13:38;;;;;;;11.90;5.35;;;24.30;99.90;;;;;;4994723;28;20212;-76
2022/06/19 00:16:04;;;;;;;5.70;5.10;;;24.30;99.90;;;;;;4998429;28;20178;-75
2022/06/19 00:18:30;;;;;;;10.65;5.95;;;24.30;99.90;;;;;;4983210;28;20206;-75
2022/06/19 00:20:56;;;;;;;10.32;6.10;;;24.30;99.90;;;;;;5004155;28;20257;-75
2022/06/19 00:23:22;;;;;;;8.57;5.55;;;24.30;99.90;;;;;;4986411;28;20197;-76
2022/06/19 00:25:48;;;;;;;11.80;6.20;;;24.20;99.90;;;;;;4983240;28;20565;-75
2022/06/19 00:28:13;;;;;;;9.93;5.60;;;24.20;99.90;;;;;;4992430;28;20216;-76
2022/06/19 00:30:39;;;;;;;7.40;5.82;;;24.10;99.90;;;;;;4983461;28;20221;-75
2022/06/19 00:33:05;;;;;;;9.70;6.55;;;24.10;99.90;;;;;;4992601;28;20285;-75
2022/06/19 00:35:31;;;;;;;9.95;6.45;;;24.10;99.90;;;;;;4991968;28;20206;-76
2022/06/19 00:37:57;;;;;;;6.53;5.70;;;24.00;99.90;;;;;;5010415;28;20215;-76
2022/06/19 00:40:24;;;;;;;9.77;6.13;;;23.90;99.90;;;;;;4993790;28;20181;-76
2022/06/19 00:42:50;;;;;;;8.93;5.80;;;24.00;99.90;;;;;;5012662;28;20653;-75
2022/06/19 00:45:34;;;;;;;8.57;6.10;;;24.00;99.90;;;;;;4986648;28;20209;-75
2022/06/19 00:48:03;;;;;;;8.20;6.18;;;24.00;99.90;;;;;;4982209;28;20446;-75
2022/06/19 00:50:35;;;;;;;8.88;6.13;;;24.00;99.90;;;;;;4991972;28;20288;-76
2022/06/19 00:53:04;;;;;;;10.38;6.13;;;23.80;99.90;;;;;;4983294;28;20292;-76
2022/06/19 00:55:43;;;;;;;7.78;6.13;;;23.80;99.90;;;;;;4982941;28;20201;-75
2022/06/19 00:58:24;;;;;;;11.05;6.13;;;23.80;99.90;;;;;;4988729;28;20316;-76
2022/06/19 01:00:58;;;;;;;10.52;6.10;;;23.70;99.90;;;;;;4994799;28;20258;-75
2022/06/19 01:03:29;;;;;;;8.55;6.22;;;23.80;99.90;;;;;;4993855;28;20216;-76
2022/06/19 01:05:55;;;;;;;6.55;5.80;;;23.80;99.90;;;;;;4998933;28;20212;-76
2022/06/19 01:08:21;;;;;;;7.97;5.20;;;23.70;99.90;;;;;;4982337;28;20217;-76
2022/06/19 01:10:50;;;;;;;8.55;5.95;;;23.70;99.90;;;;;;4982864;28;20213;-76
2022/06/19 01:13:19;;;;;;;6.88;5.65;;;23.70;99.90;;;;;;4982722;28;20213;-76
2022/06/19 01:15:45;;;;;;;10.10;6.00;;;23.70;99.90;;;;;;4982855;28;20174;-77
2022/06/19 01:18:12;;;;;;;10.68;6.03;;;23.80;99.90;;;;;;4991574;28;20694;-78
2022/06/19 01:20:40;;;;;;;8.60;5.72;;;23.80;99.90;;;;;;4982440;28;20296;-76
2022/06/19 01:23:19;;;;;;;11.90;5.70;;;23.80;99.90;;;;;;4988805;28;20216;-76
2022/06/19 01:25:45;;;;;;;12.25;6.20;;;23.70;99.90;;;;;;5009967;28;20196;-77
2022/06/19 01:31:01;;;;;;;7.03;5.95;;;23.60;99.90;;;;;;5011963;28;20593;-76
2022/06/19 01:33:32;;;;;;;6.82;5.80;;;23.60;99.90;;;;;;5002197;28;20586;-76
2022/06/19 01:35:59;;;;;;;9.00;5.82;;;23.50;99.90;;;;;;4983220;28;20568;-76
2022/06/19 01:38:26;;;;;;;8.48;5.75;;;23.50;99.90;;;;;;4990988;28;20210;-76
2022/06/19 01:40:57;;;;;;;9.35;6.28;;;23.50;99.90;;;;;;5011143;28;20575;-76
2022/06/19 01:43:22;;;;;;;8.73;6.05;;;23.30;99.90;;;;;;5011086;28;20174;-76
2022/06/19 01:45:52;;;;;;;6.78;6.03;;;23.30;99.90;;;;;;4999990;28;20170;-76
2022/06/19 01:48:20;;;;;;;10.38;6.22;;;23.30;99.90;;;;;;4985785;28;20260;-76
2022/06/19 01:50:46;;;;;;;7.55;5.70;;;23.30;99.90;;;;;;4995047;28;20212;-76
2022/06/19 01:53:21;;;;;;;9.95;6.40;;;23.20;99.90;;;;;;4995043;28;20714;-76
2022/06/19 01:55:47;;;;;;;9.75;5.88;;;23.30;99.90;;;;;;4985448;28;20233;-76
2022/06/19 01:58:13;;;;;;;9.20;6.45;;;23.30;99.90;;;;;;4994845;28;20336;-76
2022/06/19 02:00:43;;;;;;;8.02;6.10;;;23.10;99.90;;;;;;4986203;28;20698;-76
2022/06/19 02:03:11;;;;;;;8.13;6.30;;;23.20;99.90;;;;;;4985830;28;20209;-77
2022/06/19 02:05:38;;;;;;;8.95;5.68;;;23.10;99.90;;;;;;4986803;28;20205;-76
2022/06/19 02:08:04;;;;;;;10.05;6.25;;;23.10;99.90;;;;;;4994385;28;20251;-76
2022/06/19 02:10:31;;;;;;;10.52;6.63;;;23.10;99.90;;;;;;4994893;28;20216;-76
2022/06/19 02:12:59;;;;;;;12.43;6.22;;;23.00;99.90;;;;;;4995480;28;20178;-76
2022/06/19 02:15:25;;;;;;;7.90;6.18;;;23.00;99.90;;;;;;4990564;28;20210;-76
2022/06/19 02:17:53;;;;;;;11.10;6.40;;;23.00;99.90;;;;;;4985535;28;20202;-76
2022/06/19 02:20:20;;;;;;;8.48;5.85;;;23.00;99.90;;;;;;4994463;28;20213;-77
2022/06/19 02:22:46;;;;;;;9.77;5.97;;;22.90;99.90;;;;;;4977205;28;20222;-75
2022/06/19 02:25:12;;;;;;;9.30;6.43;;;22.90;99.90;;;;;;4985770;28;20212;-76
2022/06/19 02:27:38;;;;;;;7.60;5.75;;;22.80;99.90;;;;;;4985822;28;20659;-75
2022/06/19 02:30:07;;;;;;;9.50;6.38;;;22.80;99.90;;;;;;4985096;28;20215;-76
2022/06/19 02:32:48;;;;;;;8.18;5.57;;;22.80;99.90;;;;;;4994475;28;20229;-74
2022/06/19 02:35:24;;;;;;;8.20;6.35;;;22.70;99.90;;;;;;4991270;28;20330;-75
2022/06/19 02:37:52;;;;;;;8.05;5.93;;;22.80;99.90;;;;;;4998438;28;20602;-76
2022/06/19 02:40:38;;;;;;;9.20;6.55;;;22.80;99.90;;;;;;4993292;28;20269;-75
2022/06/19 02:43:10;;;;;;;10.57;6.90;;;22.70;99.90;;;;;;5002731;28;20694;-75
2022/06/19 02:45:39;;;;;;;9.20;5.93;;;22.70;99.90;;;;;;4986659;28;20210;-75
2022/06/19 02:48:05;;;;;;;8.40;6.68;;;22.70;99.90;;;;;;5022583;28;20236;-75
2022/06/19 02:50:33;;;;;;;11.07;6.20;;;22.70;99.90;;;;;;4993635;28;20678;-74
2022/06/19 02:52:59;;;;;;;10.90;6.85;;;22.80;99.90;;;;;;4990616;28;20233;-74
2022/06/19 02:55:25;;;;;;;8.57;6.72;;;22.60;99.90;;;;;;5001500;28;20267;-74
2022/06/19 02:57:51;;;;;;;8.43;5.68;;;22.70;99.90;;;;;;4992512;28;20184;-76
2022/06/19 03:00:21;;;;;;;7.85;6.50;;;22.70;99.90;;;;;;5001682;28;20701;-77
2022/06/19 03:02:50;;;;;;;9.15;6.25;;;22.80;99.90;;;;;;5002048;28;20213;-77
2022/06/19 03:05:20;;;;;;;7.57;6.38;;;22.80;99.90;;;;;;5015827;28;20255;-73
2022/06/19 03:07:46;;;;;;;7.90;6.47;;;22.90;99.90;;;;;;4987243;28;20213;-76
2022/06/19 03:10:12;;;;;;;8.55;6.53;;;23.00;99.90;;;;;;4991223;28;20530;-75
2022/06/19 03:12:38;;;;;;;9.43;6.68;;;22.90;99.90;;;;;;5004378;28;20262;-74
2022/06/19 03:15:04;;;;;;;8.85;6.10;;;22.80;99.90;;;;;;4995664;28;20771;-74
2022/06/19 03:17:30;;;;;;;13.65;7.40;;;22.80;99.90;;;;;;5003452;28;20300;-75
2022/06/19 03:19:56;;;;;;;15.80;7.15;;;22.80;99.90;;;;;;5006361;28;20291;-74
2022/06/19 03:22:22;;;;;;;8.73;6.97;;;22.90;99.90;;;;;;5019526;28;20296;-75
2022/06/19 03:24:47;;;;;;;7.70;6.35;;;22.80;99.90;;;;;;4992634;28;20587;-74
2022/06/19 03:27:14;;;;;;;12.48;6.45;;;22.90;99.90;;;;;;5001237;28;20567;-74
2022/06/19 03:29:39;;;;;;;14.63;8.82;;;23.10;99.90;;;;;;5003789;28;20554;-76
2022/06/19 03:32:08;;;;;;;10.75;9.40;;;23.10;99.90;;;;;;5004728;28;20216;-75
2022/06/19 03:34:34;;;;;;;9.93;8.10;;;23.30;99.90;;;;;;5002579;28;20284;-75
2022/06/19 03:36:59;;;;;;;7.47;6.78;;;23.40;99.90;;;;;;5022220;28;20265;-74
2022/06/19 03:39:25;;;;;;;10.32;7.32;;;23.40;99.90;;;;;;5006654;28;20213;-76
2022/06/19 03:41:50;;;;;;;9.68;7.20;;;23.40;99.90;;;;;;5019576;28;20205;-74
2022/06/19 03:44:16;;;;;;;10.15;6.45;;;23.60;99.90;;;;;;5005645;28;20223;-74
2022/06/19 03:46:42;;;;;;;10.45;7.65;;;23.50;99.90;;;;;;5001995;28;20241;-76
2022/06/19 03:49:09;;;;;;;9.60;6.85;;;23.50;99.90;;;;;;4994839;28;20201;-75
2022/06/19 03:51:35;;;;;;;9.30;6.95;;;23.60;99.90;;;;;;5017861;28;20223;-75
2022/06/19 03:54:00;;;;;;;9.57;7.03;;;23.60;99.90;;;;;;5001072;28;20289;-75
2022/06/19 03:56:31;;;;;;;9.18;6.90;;;23.90;99.90;;;;;;4991924;28;20205;-75
2022/06/19 03:58:57;;;;;;;10.10;7.00;;;24.00;99.90;;;;;;5004225;28;20213;-75
2022/06/19 04:01:25;;;;;;;8.07;7.03;;;24.30;99.90;;;;;;4995933;28;20210;-75
2022/06/19 04:03:52;;;;;;;14.38;7.22;;;24.40;99.90;;;;;;4987253;28;20181;-75
2022/06/19 04:06:20;;;;;;;9.75;6.75;;;24.50;99.90;;;;;;5004118;28;20201;-76
2022/06/19 04:08:46;;;;;;;10.38;7.10;;;24.80;99.90;;;;;;5006820;28;20613;-75
2022/06/19 04:11:17;;;;;;;10.95;7.13;;;25.00;99.90;;;;;;4985727;28;20249;-75
2022/06/19 04:13:43;;;;;;;7.43;6.30;;;25.50;99.90;;;;;;4990543;28;20214;-75
2022/06/19 04:16:14;;;;;;;10.48;6.82;;;25.80;99.90;;;;;;4986361;28;20173;-74
2022/06/19 04:18:40;;;;;;;11.05;6.63;;;25.90;99.90;;;;;;5001149;28;20177;-75
2022/06/19 04:21:15;;;;;;;16.20;6.63;;;26.00;99.90;;;;;;4982811;28;20261;-76
2022/06/19 04:23:42;;;;;;;10.10;7.57;;;26.00;99.90;;;;;;5002890;28;20273;-75
2022/06/19 04:26:10;;;;;;;12.80;7.00;;;26.10;99.90;;;;;;5018802;28;20209;-74
2022/06/19 04:28:36;;;;;;;13.50;6.85;;;26.30;99.90;;;;;;4993493;28;20732;-75
2022/06/19 04:31:02;;;;;;;11.88;6.85;;;26.40;99.90;;;;;;5004193;28;20537;-76
2022/06/19 04:33:28;;;;;;;8.80;7.15;;;26.80;99.90;;;;;;5018183;28;20227;-76
2022/06/19 04:35:53;;;;;;;9.98;7.13;;;27.10;99.90;;;;;;4990881;28;20574;-75
2022/06/19 04:38:19;;;;;;;7.60;6.80;;;26.80;99.90;;;;;;5001301;28;20297;-75
2022/06/19 04:40:45;;;;;;;12.45;7.35;;;26.80;99.90;;;;;;4989803;28;20293;-75
2022/06/19 04:43:11;;;;;;;15.80;10.05;;;27.30;99.90;;;;;;4983297;28;20182;-76
2022/06/19 04:45:38;;;;;;;9.93;7.05;;;27.90;99.90;;;;;;4990821;28;20268;-76
2022/06/19 04:48:04;;;;;;;9.45;7.05;;;28.00;99.90;;;;;;4990457;28;20252;-76
2022/06/19 04:50:30;;;;;;;8.70;7.75;;;28.50;99.90;;;;;;4991917;28;20620;-75
2022/06/19 04:52:56;;;;;;;10.10;7.22;;;28.10;99.90;;;;;;4992295;28;20209;-75
2022/06/19 04:55:22;;;;;;;10.57;7.20;;;27.60;99.90;;;;;;4982637;28;20269;-75
2022/06/19 04:57:48;;;;;;;11.38;7.70;;;28.10;99.90;;;;;;5003434;28;20656;-77
2022/06/19 05:00:16;;;;;;;11.30;7.82;;;28.20;99.90;;;;;;4993943;28;20553;-76
2022/06/19 05:02:42;;;;;;;8.85;7.28;;;29.00;99.90;;;;;;4993910;28;20205;-76
2022/06/19 05:05:14;;;;;;;10.45;7.95;;;29.30;99.90;;;;;;5011327;28;20214;-76
2022/06/19 05:07:40;;;;;;;10.82;7.28;;;29.60;99.90;;;;;;5011428;28;20217;-75
2022/06/19 05:10:06;;;;;;;9.80;7.45;;;30.50;99.90;;;;;;4998023;28;20223;-76
2022/06/19 05:12:32;;;;;;;10.55;7.65;;;30.60;99.90;;;;;;4983080;28;20224;-76
2022/06/19 05:14:57;;;;;;;10.95;7.90;;;30.40;99.90;;;;;;4987615;28;20217;-76
2022/06/19 05:17:23;;;;;;;10.77;8.63;;;30.50;99.90;;;;;;4985871;28;20640;-76
2022/06/19 05:19:49;;;;;;;13.27;7.80;;;30.20;99.90;;;;;;4990475;28;20197;-76
2022/06/19 05:22:14;;;;;;;12.75;6.85;;;31.00;99.90;;;;;;4995845;28;20197;-76
2022/06/19 05:24:40;;;;;;;9.45;7.05;;;31.00;99.90;;;;;;4989646;28;20181;-76
2022/06/19 05:27:09;;;;;;;9.38;7.35;;;31.10;99.90;;;;;;5014511;28;20693;-76
2022/06/19 05:29:36;;;;;;;10.48;7.65;;;31.30;99.90;;;;;;4997761;28;20205;-76
2022/06/19 05:32:04;;;;;;;11.57;8.00;;;31.00;99.90;;;;;;5015772;28;20292;-76
2022/06/19 05:34:34;;;;;;;12.15;8.15;;;31.00;99.90;;;;;;4997499;28;20205;-75
2022/06/19 05:37:00;;;;;;;9.25;7.20;;;30.60;99.90;;;;;;4998415;28;20180;-76
2022/06/19 05:39:26;;;;;;;8.93;7.70;;;31.30;99.90;;;;;;5012817;28;20258;-75
2022/06/19 05:41:52;;;;;;;14.63;7.30;;;31.60;99.90;;;;;;4986077;28;20209;-76
2022/06/19 05:44:18;;;;;;;15.10;6.93;;;31.00;99.90;;;;;;4995590;28;20236;-76
2022/06/19 05:46:47;;;;;;;13.77;7.90;;;30.80;99.90;;;;;;4986233;28;20209;-76
2022/06/19 05:49:13;;;;;;;10.35;7.05;;;31.80;99.90;;;;;;4984801;28;20209;-76
2022/06/19 05:51:39;;;;;;;14.80;7.47;;;31.50;99.90;;;;;;5027065;23;20226;-71
2022/06/19 05:54:04;;;;;;;13.68;7.63;;;32.10;99.90;;;;;;5033050;28;20223;-72
2022/06/19 05:56:30;;;;;;;12.98;7.40;;;32.30;99.90;;;;;;5032801;28;20216;-71
2022/06/19 05:58:56;;;;;;;14.30;7.68;;;32.60;99.90;;;;;;5032275;28;20342;-71
2022/06/19 06:01:23;;;;;;;12.77;6.97;;;32.80;99.90;;;;;;5032521;28;20192;-72
2022/06/19 06:03:49;;;;;;;11.90;7.25;;;33.20;99.90;;;;;;5033418;28;20180;-72
2022/06/19 06:06:22;;;;;;;16.90;7.78;;;33.60;99.90;;;;;;5032947;28;20208;-72
2022/06/19 06:08:48;;;;;;;13.50;7.05;;;33.90;99.90;;;;;;5033691;28;20220;-72
2022/06/19 06:11:14;;;;;;;9.45;6.60;;;33.30;99.90;;;;;;5033911;28;20216;-72
2022/06/19 06:13:40;;;;;;;10.38;6.90;;;33.30;99.90;;;;;;5032389;28;20303;-72
2022/06/19 06:16:07;;;;;;;14.32;7.88;;;34.60;99.90;;;;;;5033093;28;20263;-72
2022/06/19 06:18:32;;;;;;;12.90;6.93;;;34.70;99.90;;;;;;5032181;28;20234;-72
2022/06/19 06:21:00;;;;;;;18.02;7.63;;;34.70;99.90;;;;;;5033731;28;20740;-72
2022/06/19 06:23:27;;;;;;;11.93;7.25;;;34.60;99.90;;;;;;5033620;28;20660;-71
2022/06/19 06:26:05;;;;;;;13.25;7.60;;;35.40;99.50;;;;;;5032555;28;20241;-72
2022/06/19 06:28:32;;;;;;;13.02;6.57;;;35.00;99.10;;;;;;5033172;28;20242;-72
2022/06/19 06:30:58;;;;;;;9.93;7.45;;;35.60;98.00;;;;;;5032821;28;20176;-72
2022/06/19 06:33:24;;;;;;;14.93;7.78;;;34.50;98.50;;;;;;5032667;28;20203;-71
2022/06/19 06:35:50;;;;;;;16.25;7.65;;;35.00;97.80;;;;;;5033601;28;20223;-71
2022/06/19 06:38:15;;;;;;;9.90;6.93;;;34.40;98.40;;;;;;5031537;28;20255;-71
2022/06/19 06:40:41;;;;;;;18.13;7.32;;;34.10;98.90;;;;;;5033258;28;20226;-72
2022/06/19 06:43:07;;;;;;;9.48;7.22;;;34.60;98.10;;;;;;5033556;28;20238;-72
2022/06/19 06:45:33;;;;;;;15.98;7.65;;;35.80;96.80;;;;;;5032382;28;20590;-72
2022/06/19 06:48:00;;;;;;;13.13;6.80;;;36.20;95.90;;;;;;5031970;28;20211;-72
2022/06/19 06:50:26;;;;;;;17.45;7.68;;;35.70;95.40;;;;;;5031750;28;20610;-72
2022/06/19 06:52:52;;;;;;;13.13;6.97;;;35.60;95.60;;;;;;5031316;28;20220;-72
2022/06/19 06:55:18;;;;;;;15.55;7.03;;;35.40;95.60;;;;;;5031759;28;20168;-72
2022/06/19 06:57:43;;;;;;;15.27;6.95;;;35.60;95.20;;;;;;5033287;28;20254;-71
2022/06/19 07:00:15;;;;;;;14.82;7.40;;;35.80;94.30;;;;;;5031443;28;20211;-71
2022/06/19 07:02:40;;;;;;;10.73;6.63;;;35.60;94.60;;;;;;5031465;28;20960;-72
2022/06/19 07:05:06;;;;;;;13.20;6.95;;;35.70;94.70;;;;;;5031733;28;20292;-72
2022/06/19 07:07:32;;;;;;;13.52;6.47;;;36.30;93.80;;;;;;5031248;28;20211;-71
2022/06/19 07:09:57;;;;;;;15.05;6.63;;;37.10;92.80;;;;;;5032990;28;20659;-72
2022/06/19 07:12:23;;;;;;;16.13;7.25;;;36.70;92.80;;;;;;5031177;28;20597;-71
2022/06/19 07:14:49;;;;;;;12.60;6.70;;;36.40;92.70;;;;;;5031491;28;20250;-71
2022/06/19 07:17:14;;;;;;;10.18;6.45;;;36.80;92.20;;;;;;5031429;28;20222;-72
2022/06/19 07:19:40;;;;;;;14.43;6.40;;;37.10;92.10;;;;;;5032183;28;21520;-71
2022/06/19 07:22:05;;;;;;;13.88;6.60;;;37.30;90.80;;;;;;5031690;28;20188;-71
2022/06/19 07:24:31;;;;;;;14.10;6.43;;;37.60;90.60;;;;;;5031272;28;20295;-71
2022/06/19 07:26:57;;;;;;;11.40;5.60;;;37.90;90.00;;;;;;5031091;28;20278;-72
2022/06/19 07:29:22;;;;;;;14.30;5.78;;;37.80;88.00;;;;;;5030633;28;20208;-71
2022/06/19 07:31:48;;;;;;;10.05;5.43;;;38.10;88.00;;;;;;5030500;28;20853;-72
2022/06/19 07:34:13;;;;;;;10.77;6.03;;;38.90;86.60;;;;;;5031142;28;20292;-72
2022/06/19 07:36:39;;;;;;;12.60;6.40;;;39.60;84.20;;;;;;5031407;28;20563;-72
2022/06/19 07:39:05;;;;;;;13.90;5.32;;;40.50;82.60;;;;;;5030665;28;20553;-72
2022/06/19 07:41:30;;;;;;;14.20;5.38;;;40.10;79.60;;;;;;5030296;28;20692;-72
2022/06/19 07:43:56;;;;;;;11.82;4.72;;;40.70;78.80;;;;;;5031260;28;20226;-72
2022/06/19 07:46:23;;;;;;;9.27;4.65;;;41.20;76.20;;;;;;5032056;28;20544;-72
2022/06/19 07:51:33;;;;;;;14.63;6.35;;;41.60;73.60;;;;;;5032237;28;20234;-72
2022/06/19 07:54:00;;;;;;;10.95;4.85;;;41.20;72.50;;;;;;5030720;28;20239;-72
2022/06/19 07:56:25;;;;;;;11.85;4.72;;;41.40;72.00;;;;;;5030608;28;20203;-71
2022/06/19 07:58:51;;;;;;;9.98;4.60;;;40.70;70.70;;;;;;5030165;28;20211;-72
2022/06/19 08:01:17;;;;;;;9.27;4.55;;;41.00;73.10;;;;;;5030715;28;20549;-72
2022/06/19 08:03:42;;;;;;;15.40;5.60;;;41.10;71.30;;;;;;5030823;28;20180;-72
2022/06/19 08:06:08;;;;;;;14.40;5.57;;;41.20;70.30;;;;;;5030653;28;20242;-73
2022/06/19 08:08:35;;;;;;;9.23;5.53;;;41.80;69.70;;;;;;5031603;28;20278;-73
2022/06/19 08:11:01;;;;;;;12.80;5.47;;;42.40;68.70;;;;;;5030590;28;20219;-72
2022/06/19 08:13:30;;;;;;;9.20;5.63;;;42.40;67.50;;;;;;5031867;28;20207;-72
2022/06/19 08:16:02;;;;;;;15.68;6.53;;;42.80;66.90;;;;;;5032450;28;20191;-72
2022/06/19 08:18:29;;;;;;;10.73;6.72;;;42.90;66.30;;;;;;5031605;28;20518;-72
2022/06/19 08:20:54;;;;;;;12.23;7.07;;;42.60;65.30;;;;;;5029666;28;20676;-71
2022/06/19 08:23:20;;;;;;;11.90;6.28;;;42.60;64.80;;;;;;5031720;28;20211;-72
2022/06/19 08:25:47;;;;;;;13.32;7.32;;;42.60;65.10;;;;;;5023230;28;20192;-73
2022/06/19 08:28:15;;;;;;;16.05;7.78;;;41.40;64.60;;;;;;5029571;28;20206;-72
2022/06/19 08:30:42;;;;;;;13.73;7.13;;;41.50;66.30;;;;;;5031909;28;20179;-72
2022/06/19 08:33:09;;;;;;;13.10;6.57;;;40.60;66.60;;;;;;5030008;28;20211;-72
2022/06/19 08:35:49;;;;;;;14.32;6.95;;;41.00;66.00;;;;;;5031002;28;20568;-72
2022/06/19 08:38:25;;;;;;;16.65;7.05;;;41.70;65.80;;;;;;5029691;28;20203;-72
2022/06/19 08:40:50;;;;;;;14.70;7.55;;;41.00;65.10;;;;;;5029757;28;20203;-71
2022/06/19 08:43:31;;;;;;;13.93;7.45;;;41.10;64.80;;;;;;5029771;28;20176;-72
2022/06/19 08:46:15;;;;;;;17.08;7.10;;;41.00;63.70;;;;;;5031492;28;20617;-71
2022/06/19 08:48:59;;;;;;;16.17;8.00;;;41.10;63.80;;;;;;5031426;28;20223;-72
2022/06/19 08:51:53;;;;;;;13.88;6.78;;;40.80;63.60;;;;;;5029042;28;20219;-72
2022/06/19 08:54:26;;;;;;;16.38;8.35;;;40.50;64.00;;;;;;5030877;28;20199;-72
2022/06/19 08:57:04;;;;;;;17.33;7.93;;;40.40;64.40;;;;;;5030934;28;20247;-72
2022/06/19 09:00:00;;;;;;;17.20;7.22;;;41.10;64.00;;;;;;5029549;28;20603;-72
2022/06/19 09:02:29;;;;;;;13.77;7.43;;;41.70;63.40;;;;;;5030703;28;20216;-72
2022/06/19 09:08:05;;;;;;;13.77;7.82;;;41.90;63.00;;;;;;5030822;28;20294;-72
2022/06/19 09:10:51;;;;;;;17.05;7.75;;;42.00;62.50;;;;;;5030639;28;20208;-71
2022/06/19 09:13:31;;;;;;;16.02;8.05;;;40.80;62.60;;;;;;5030909;28;20267;-71
2022/06/19 09:16:01;;;;;;;16.13;8.23;;;41.10;63.00;;;;;;5031210;28;20219;-72
2022/06/19 09:18:39;;;;;;;13.38;7.70;;;41.30;63.00;;;;;;5030163;28;20669;-71
2022/06/19 09:21:17;;;;;;;16.83;7.30;;;41.30;61.80;;;;;;5029445;28;20322;-73
2022/06/19 09:24:01;;;;;;;15.60;8.15;;;40.70;62.60;;;;;;5030778;28;20200;-70
2022/06/19 09:26:41;;;;;;;18.38;7.25;;;41.30;62.40;;;;;;5030686;28;20200;-71
2022/06/19 09:29:21;;;;;;;15.68;5.93;;;41.30;62.10;;;;;;5030361;28;20219;-72
2022/06/19 09:31:57;;;;;;;15.77;5.43;;;41.70;61.10;;;;;;5021316;28;20269;-72
2022/06/19 09:34:44;;;;;;;14.90;5.10;;;41.20;60.30;;;;;;5030535;28;20207;-72
2022/06/19 09:37:39;;;;;;;21.70;6.40;;;40.70;60.30;;;;;;5030814;28;20167;-72
2022/06/19 09:40:20;;;;;;;17.58;5.65;;;40.80;61.30;;;;;;5029996;28;20202;-73
2022/06/19 09:42:56;;;;;;;19.50;5.90;;;40.40;60.90;;;;;;5031071;28;20199;-72
2022/06/19 09:45:24;;;;;;;9.98;4.22;;;40.40;60.50;;;;;;5029086;28;20261;-72
2022/06/19 09:48:02;;;;;;;17.58;5.55;;;39.90;60.60;;;;;;5029247;28;20690;-72
2022/06/19 09:50:59;;;;;;;17.77;4.53;;;39.50;60.60;;;;;;5030126;28;20210;-72
2022/06/19 09:53:41;;;;;;;15.68;4.72;;;39.40;60.90;;;;;;5030438;28;20216;-73
2022/06/19 09:56:21;;;;;;;14.43;4.95;;;39.30;61.40;;;;;;5030822;28;20570;-73
2022/06/19 09:58:50;;;;;;;16.73;5.40;;;38.90;62.10;;;;;;5030387;28;20195;-73
2022/06/19 10:01:16;;;;;;;20.30;4.95;;;39.00;62.00;;;;;;5030428;28;20192;-72
2022/06/19 10:03:49;;;;;;;17.15;4.75;;;39.20;61.90;;;;;;5030767;28;20179;-73
2022/06/19 10:06:21;;;;;;;16.58;7.35;;;39.40;62.10;;;;;;5029019;28;20200;-73
2022/06/19 10:08:54;;;;;;;13.60;4.40;;;39.20;62.30;;;;;;5033346;28;20208;-72
2022/06/19 10:11:28;;;;;;;18.95;5.47;;;38.40;62.70;;;;;;5033875;28;20211;-72
2022/06/19 10:14:11;;;;;;;15.88;5.85;;;38.50;63.40;;;;;;5033633;28;20203;-73
2022/06/19 10:16:55;;;;;;;15.20;5.05;;;38.60;63.40;;;;;;5032232;28;20206;-73
2022/06/19 10:19:26;;;;;;;13.15;5.03;;;38.50;63.40;;;;;;5032249;28;20178;-72
2022/06/19 10:22:16;;;;;;;16.40;5.00;;;38.10;63.40;;;;;;5032767;28;20200;-72
2022/06/19 10:25:01;;;;;;;12.77;4.57;;;38.10;63.70;;;;;;5032703;28;20270;-72
2022/06/19 10:27:41;;;;;;;14.75;4.75;;;37.90;63.50;;;;;;5032178;28;20212;-71
2022/06/19 10:30:13;;;;;;;14.98;5.15;;;37.90;63.80;;;;;;5032289;28;20199;-72
2022/06/19 10:32:47;;;;;;;12.77;4.38;;;38.00;64.20;;;;;;5033563;28;20715;-72
2022/06/19 10:35:31;;;;;;;15.05;4.13;;;38.00;64.30;;;;;;5033704;28;20210;-71
2022/06/19 10:38:34;;;;;;;13.80;4.57;;;38.00;64.00;;;;;;5031978;28;20200;-71
2022/06/19 10:42:00;;;;;;;13.30;5.05;;;37.80;64.60;;;;;;5033411;28;20293;-71
2022/06/19 10:44:17;;;;;;;12.95;4.25;;;37.70;64.30;;;;;;5033632;28;20239;-72
2022/06/19 10:46:48;;;;;;;16.02;4.75;;;37.70;65.10;;;;;;5032220;28;20294;-72
2022/06/19 10:49:35;;;;;;;17.20;4.40;;;37.70;65.80;;;;;;5031731;28;20581;-72
2022/06/19 10:52:16;;;;;;;15.45;4.15;;;37.70;64.50;;;;;;5032265;28;20208;-71
2022/06/19 10:55:05;;;;;;;12.95;5.20;;;37.80;65.10;;;;;;5032141;28;20231;-72
2022/06/19 10:57:45;;;;;;;11.10;5.18;;;37.70;64.70;;;;;;5027431;28;20199;-72
2022/06/19 11:00:11;;;;;;;14.93;4.68;;;37.60;64.80;;;;;;5033189;28;20203;-72
2022/06/19 11:06:07;;;;;;;14.43;4.60;;;37.70;65.00;;;;;;5033285;28;20261;-72
2022/06/19 11:08:35;;;;;;;17.67;4.60;;;37.90;64.90;;;;;;5028072;28;20223;-71
2022/06/19 11:11:02;;;;;;;17.70;4.47;;;37.90;64.50;;;;;;5033052;28;20338;-72
2022/06/19 11:14:07;;;;;;;17.20;4.88;;;38.10;64.90;;;;;;5031436;28;20291;-71
2022/06/19 11:16:50;;;;;;;17.08;4.95;;;38.10;64.30;;;;;;5028444;28;20283;-71
2022/06/19 11:19:41;;;;;;;11.00;5.00;;;37.80;64.80;;;;;;5032032;28;20682;-71
2022/06/19 11:22:30;;;;;;;19.25;5.40;;;37.70;64.80;;;;;;5033024;28;20203;-72
2022/06/19 11:24:56;;;;;;;15.80;5.10;;;37.70;65.10;;;;;;5033202;28;20648;-72
2022/06/19 11:27:25;;;;;;;11.65;5.10;;;37.80;65.10;;;;;;5031278;28;20235;-71
2022/06/19 11:29:53;;;;;;;14.02;4.63;;;37.80;65.00;;;;;;5031104;28;20203;-72
2022/06/19 11:32:22;;;;;;;16.88;5.05;;;37.80;65.20;;;;;;5031214;28;20207;-72
2022/06/19 11:35:07;;;;;;;19.63;5.95;;;37.80;65.60;;;;;;5031222;28;20254;-72
2022/06/19 11:37:37;;;;;;;12.23;4.80;;;38.10;65.70;;;;;;5031491;28;20210;-72
2022/06/19 11:40:05;;;;;;;12.93;4.75;;;38.00;65.90;;;;;;5031492;28;20648;-72
2022/06/19 11:42:37;;;;;;;11.10;4.82;;;38.00;65.60;;;;;;5032704;28;20204;-72
2022/06/19 11:45:12;;;;;;;18.50;5.13;;;37.80;65.70;;;;;;5030835;28;20307;-72
2022/06/19 11:47:58;;;;;;;15.48;5.45;;;37.60;66.60;;;;;;5030622;28;20211;-72
2022/06/19 11:50:33;;;;;;;16.73;5.97;;;37.30;71.10;;;;;;5032289;28;20215;-73
2022/06/19 11:53:10;;;;;;;15.57;7.03;;;36.90;74.80;;;;;;5029686;23;20224;-75
2022/06/19 11:55:43;;;;;;;20.58;6.47;;;37.00;75.70;;;;;;5011485;28;20270;-74
2022/06/19 11:58:46;;;;;;;18.48;7.25;;;37.00;76.00;;;;;;4994414;28;20169;-74
2022/06/19 12:01:16;;;;;;;17.13;6.40;;;37.20;77.00;;;;;;4932598;29;20226;-74
2022/06/19 12:03:55;;;;;;;15.02;6.40;;;37.00;78.80;;;;;;4971370;28;20235;-75
2022/06/19 12:06:42;;;;;;;18.25;6.43;;;36.50;80.00;;;;;;4975331;28;20201;-75
2022/06/19 12:09:38;;;;;;;10.32;5.50;;;36.30;80.90;;;;;;4992559;28;20221;-74
2022/06/19 12:12:13;;;;;;;13.25;6.15;;;35.90;81.40;;;;;;4975523;28;20284;-74
2022/06/19 12:14:50;;;;;;;11.82;5.70;;;35.80;81.00;;;;;;4992937;28;20204;-76
2022/06/19 12:17:31;;;;;;;11.93;5.07;;;35.50;80.60;;;;;;4975463;28;20236;-76
2022/06/19 12:19:56;;;;;;;13.13;5.38;;;35.20;81.40;;;;;;4977153;28;20209;-76
2022/06/19 12:22:32;;;;;;;16.95;6.07;;;35.00;82.60;;;;;;4992599;28;20216;-75
2022/06/19 12:25:28;;;;;;;16.88;8.02;;;35.10;83.00;;;;;;4993134;28;20181;-75
2022/06/19 12:28:04;;;;;;;15.15;6.60;;;35.20;82.40;;;;;;4975108;28;20228;-76
2022/06/19 12:30:58;;;;;;;19.42;5.50;;;35.10;82.00;;;;;;4974239;28;20216;-76
2022/06/19 12:33:31;;;;;;;13.43;5.20;;;34.90;81.10;;;;;;4992479;28;20352;-76
2022/06/19 12:35:56;;;;;;;14.02;5.63;;;34.70;81.30;;;;;;4975089;28;20698;-76
2022/06/19 12:38:24;;;;;;;13.82;5.18;;;34.80;81.60;;;;;;4974841;28;20304;-76
2022/06/19 12:41:34;;;;;;;16.17;5.03;;;34.70;81.80;;;;;;4996345;28;20244;-76
2022/06/19 12:44:28;;;;;;;17.80;6.07;;;34.50;81.60;;;;;;4980788;28;20209;-76
2022/06/19 12:47:20;;;;;;;14.32;5.55;;;34.50;82.20;;;;;;4992503;28;20260;-76
2022/06/19 12:50:10;;;;;;;12.40;5.10;;;34.60;82.70;;;;;;4980276;28;20225;-76
2022/06/19 12:52:41;;;;;;;16.60;6.47;;;34.70;82.40;;;;;;4975926;28;20244;-76
2022/06/19 12:55:32;;;;;;;18.55;5.57;;;34.50;81.80;;;;;;4993064;28;20403;-75
2022/06/19 12:58:21;;;;;;;14.23;6.07;;;34.30;80.40;;;;;;4992770;28;20174;-76
2022/06/19 13:00:55;;;;;;;14.73;5.10;;;34.50;80.70;;;;;;4975139;28;20217;-76
2022/06/19 13:03:45;;;;;;;14.07;5.68;;;34.60;81.20;;;;;;4991977;28;20300;-76
2022/06/19 13:06:43;;;;;;;17.73;5.88;;;34.40;81.30;;;;;;4975264;28;20209;-76
2022/06/19 13:09:33;;;;;;;12.77;5.50;;;33.90;82.00;;;;;;4979961;28;20224;-76
2022/06/19 13:12:12;;;;;;;13.23;5.75;;;34.00;82.40;;;;;;4974823;28;20699;-76
2022/06/19 13:14:41;;;;;;;14.00;4.80;;;34.30;82.90;;;;;;4992079;28;20209;-76